Flight Track Log - Related Links

Times and Time Zones

All times are in EDT time to prevent confusion due to time zone crossing. See the C-GYPG flight status page for this flight to view local times or setup timezone preferences in your user account.

Time Position Orientation Groundspeed Altitude Reporting Facility
EDT Latitude Longitude Course Direction KTS MPH feet Rate Location/Type
Sat 10:40:32 AM 50.0667 -97.0167 228° Southwest 80 92 1,500  Level Winnipeg Center
Sat 10:41:31 AM 50.0833 -97.0167 360° North 80 92 2,100 605 Climbing Winnipeg Center
Sat 10:42:31 AM 50.1000 -97.0167 360° North 80 92 2,700 500 Climbing Winnipeg Center
Sat 10:43:31 AM 50.1333 -97.0167 360° North 80 92 3,100 298 Climbing Winnipeg Center
Sat 10:44:32 AM 50.1167 -97.0000 147° Southeast 110 127 3,300 400 Climbing Winnipeg Center
Sat 10:45:00 AM 50.0564 -97.0325 228° Southwest  Level Estimated
Sat 10:45:31 AM 50.0833 -97.0167 198° South 110 127 3,900  Level Winnipeg Center
Sat 10:46:32 AM 50.0500 -97.0500 213° Southwest 130 150 4,000 50 Climbing Winnipeg Center
Sat 10:47:32 AM 50.0167 -97.0667 198° South 130 150 4,000  Level Winnipeg Center
Sat 10:48:31 AM 49.9833 -97.1000 213° Southwest 130 150 4,000  Level Winnipeg Center
Sat 10:49:31 AM 49.9500 -97.1000 180° South 130 150 4,000  Level Winnipeg Center
Sat 10:50:31 AM 49.9167 -97.1167 198° South 130 150 4,000  Level Winnipeg Center
Sat 10:51:31 AM 49.8833 -97.1500 213° Southwest 130 150 4,000  Level Winnipeg Center
Sat 10:52:31 AM 49.8500 -97.1500 180° South 130 150 4,000  Level Winnipeg Center
Sat 10:53:31 AM 49.8000 -97.1500 180° South 130 150 4,000  Level Winnipeg Center
Sat 10:54:31 AM 49.7667 -97.1500 180° South 130 150 4,000  Level Winnipeg Center
Sat 10:55:32 AM 49.7333 -97.1500 180° South 130 150 4,000 -250 Level Winnipeg Center
Sat 10:56:31 AM 49.7167 -97.1667 213° Southwest 130 150 3,500 -504 Descending Winnipeg Center
Sat 10:57:31 AM 49.7167 -97.2167 270° West 120 138 3,000 -300 Descending Winnipeg Center
Sat 10:58:31 AM 49.7333 -97.2833 291° West 100 115 2,900  Descending Winnipeg Center
Sat 10:59:31 AM 49.7667 -97.2500 33° Northeast 90 104 3,000  Climbing Winnipeg Center
Sat 11:00:31 AM 49.7833 -97.2500 360° North 100 115 2,900 -400 Descending Winnipeg Center
Sat 11:01:31 AM 49.8167 -97.2500 360° North 110 127 2,200 -600 Descending Winnipeg Center
Sat 11:03:31 AM 49.8833 -97.2333 North 110 127 1,100 -166 Descending Winnipeg Center
Sat 11:04:32 AM 49.9000 -97.2333 360° North 100 115 1,700 650 Climbing Winnipeg Center
Sat 11:05:31 AM 49.9000 -97.2000 90° East 90 104 2,400 403 Climbing Winnipeg Center
Sat 11:06:31 AM 49.9000 -97.1500 90° East 110 127 2,500 300 Climbing Winnipeg Center
Sat 11:07:31 AM 49.9000 -97.1000 90° East 90 104 3,000 250 Climbing Winnipeg Center
Sat 11:08:31 AM 49.8667 -97.1000 180° South 120 138 3,000 50 Level Winnipeg Center
Sat 11:09:31 AM 49.8333 -97.0667 147° Southeast 120 138 3,100  Climbing Winnipeg Center
Sat 11:10:31 AM 49.8167 -97.1167 243° Southwest 120 138 3,000 -100 Descending Winnipeg Center
Sat 11:11:31 AM 49.8000 -97.1500 232° Southwest 130 150 2,900  Descending Winnipeg Center
Sat 11:12:31 AM 49.7833 -97.1167 128° Southeast 110 127 3,000 100 Climbing Winnipeg Center
Sat 11:13:31 AM 49.7667 -97.1000 147° Southeast 100 115 3,100 50 Climbing Winnipeg Center
Sat 11:14:32 AM 49.7667 -97.0500 90° East 100 115 3,100 -99 Level Winnipeg Center
Sat 11:15:32 AM 49.7333 -97.0167 147° Southeast 110 127 2,900 -202 Descending Winnipeg Center
Sat 11:16:31 AM 49.7500 -97.0500 308° West 100 115 2,700 50 Descending Winnipeg Center
Sat 11:17:31 AM 49.7833 -97.0667 342° North 110 127 3,000 149 Climbing Winnipeg Center
Sat 11:18:32 AM 49.8000 -97.1000 308° West 110 127 3,000 -250 Level Winnipeg Center
Sat 11:19:31 AM 49.8167 -97.1500 297° West 110 127 2,500 -504 Descending Winnipeg Center
Sat 11:20:31 AM 49.8500 -97.1667 342° North 110 127 2,000 -600 Descending Winnipeg Center
Sat 11:21:31 AM 49.8667 -97.2000 308° West 110 127 1,300 -100 Descending Winnipeg Center
Sat 11:22:31 AM 49.8833 -97.2000 360° North 100 115 1,800 550 Climbing Winnipeg Center
Sat 11:23:31 AM 49.9000 -97.1667 52° Northeast 90 104 2,400 545 Climbing Winnipeg Center
Sat 11:24:32 AM 49.9333 -97.1500 18° North 90 104 2,900 300 Climbing Winnipeg Center
Sat 11:25:31 AM 49.9333 -97.1167 90° East 110 127 3,000 34 Climbing Winnipeg Center
Sat 11:27:31 AM 49.9333 -97.0167 90° East 110 127 3,000 20 Level Winnipeg Center
Sat 11:30:31 AM 49.9333 -96.8833 90° East 110 127 3,100  Climbing Winnipeg Center
Sat 11:31:31 AM 49.9500 -96.8667 33° Northeast 140 161 3,000 -250 Descending Winnipeg Center
Sat 11:32:31 AM 49.9667 -96.8833 327° Northwest 120 138 2,600 -550 Descending Winnipeg Center
Sat 11:33:31 AM 50.0000 -96.9333 316° Northwest 120 138 1,900 -645 Descending Winnipeg Center
Sat 11:34:32 AM 50.0167 -96.9667 308° West 120 138 1,300 -397 Descending Winnipeg Center
Sat 11:35:32 AM 50.0333 -97.0000 308° West 90 104 1,100 -250 Descending Winnipeg Center
Sat 11:36:32 AM 50.0500 -97.0167 327° Northwest 70 81 800 -300 Descending Winnipeg Center

Login

Don't have an account? Register now (free) for customized features, flight alerts, and more!